sensor_id;sensor_type;location;lat;lon;timestamp;temperature;humidity
13854;DHT22;6997;51.782;8.824;2022-08-19T00:00:03;19.60;99.90
13854;DHT22;6997;51.782;8.824;2022-08-19T00:02:28;19.70;99.90
13854;DHT22;6997;51.782;8.824;2022-08-19T00:04:54;19.70;99.90
13854;DHT22;6997;51.782;8.824;2022-08-19T00:07:20;19.70;99.90
13854;DHT22;6997;51.782;8.824;2022-08-19T00:09:46;19.70;99.90
13854;DHT22;6997;51.782;8.824;2022-08-19T00:12:12;19.70;99.90
13854;DHT22;6997;51.782;8.824;2022-08-19T00:14:38;19.60;99.90
13854;DHT22;6997;51.782;8.824;2022-08-19T00:17:05;19.70;99.90
13854;DHT22;6997;51.782;8.824;2022-08-19T00:19:32;19.70;99.90
13854;DHT22;6997;51.782;8.824;2022-08-19T00:21:57;19.80;99.90
13854;DHT22;6997;51.782;8.824;2022-08-19T00:26:49;19.70;99.90
13854;DHT22;6997;51.782;8.824;2022-08-19T00:29:17;19.60;99.90
13854;DHT22;6997;51.782;8.824;2022-08-19T00:31:44;19.70;99.90
13854;DHT22;6997;51.782;8.824;2022-08-19T00:36:38;19.80;99.90
13854;DHT22;6997;51.782;8.824;2022-08-19T00:39:04;19.70;99.90
13854;DHT22;6997;51.782;8.824;2022-08-19T00:41:30;19.70;99.90
13854;DHT22;6997;51.782;8.824;2022-08-19T00:46:28;19.60;99.90
13854;DHT22;6997;51.782;8.824;2022-08-19T00:48:55;19.60;99.90
13854;DHT22;6997;51.782;8.824;2022-08-19T00:51:22;19.60;99.90
13854;DHT22;6997;51.782;8.824;2022-08-19T00:53:53;19.50;99.90
13854;DHT22;6997;51.782;8.824;2022-08-19T00:56:19;19.40;99.90
13854;DHT22;6997;51.782;8.824;2022-08-19T00:58:45;19.40;99.90
13854;DHT22;6997;51.782;8.824;2022-08-19T01:01:10;19.30;99.90
13854;DHT22;6997;51.782;8.824;2022-08-19T01:03:36;19.30;99.90
13854;DHT22;6997;51.782;8.824;2022-08-19T01:06:02;19.10;99.90
13854;DHT22;6997;51.782;8.824;2022-08-19T01:13:27;19.10;99.90
13854;DHT22;6997;51.782;8.824;2022-08-19T01:18:28;19.00;99.90
13854;DHT22;6997;51.782;8.824;2022-08-19T01:26:15;18.90;99.90
13854;DHT22;6997;51.782;8.824;2022-08-19T01:28:42;18.80;99.90
13854;DHT22;6997;51.782;8.824;2022-08-19T01:31:12;18.80;99.90
13854;DHT22;6997;51.782;8.824;2022-08-19T01:33:38;18.80;99.90
13854;DHT22;6997;51.782;8.824;2022-08-19T01:36:07;18.80;99.90
13854;DHT22;6997;51.782;8.824;2022-08-19T01:38:35;18.60;99.90
13854;DHT22;6997;51.782;8.824;2022-08-19T01:41:02;18.60;99.90
13854;DHT22;6997;51.782;8.824;2022-08-19T01:43:28;18.80;99.90
13854;DHT22;6997;51.782;8.824;2022-08-19T01:48:20;18.70;99.90
13854;DHT22;6997;51.782;8.824;2022-08-19T01:53:13;18.80;99.90
13854;DHT22;6997;51.782;8.824;2022-08-19T01:58:08;18.60;99.90
13854;DHT22;6997;51.782;8.824;2022-08-19T02:00:36;18.60;99.90
13854;DHT22;6997;51.782;8.824;2022-08-19T02:03:02;18.60;99.90
13854;DHT22;6997;51.782;8.824;2022-08-19T02:05:28;18.60;99.90
13854;DHT22;6997;51.782;8.824;2022-08-19T02:10:21;18.50;99.90
13854;DHT22;6997;51.782;8.824;2022-08-19T02:12:48;18.50;99.90
13854;DHT22;6997;51.782;8.824;2022-08-19T02:17:42;18.50;99.90
13854;DHT22;6997;51.782;8.824;2022-08-19T02:20:08;18.50;99.90
13854;DHT22;6997;51.782;8.824;2022-08-19T02:22:34;18.40;99.90
13854;DHT22;6997;51.782;8.824;2022-08-19T02:25:01;18.30;99.90
13854;DHT22;6997;51.782;8.824;2022-08-19T02:27:26;18.30;99.90
13854;DHT22;6997;51.782;8.824;2022-08-19T02:29:52;18.40;99.90
13854;DHT22;6997;51.782;8.824;2022-08-19T02:32:19;18.40;99.90
13854;DHT22;6997;51.782;8.824;2022-08-19T02:34:46;18.40;99.90
13854;DHT22;6997;51.782;8.824;2022-08-19T02:39:57;18.50;99.90
13854;DHT22;6997;51.782;8.824;2022-08-19T02:42:23;18.30;99.90
13854;DHT22;6997;51.782;8.824;2022-08-19T02:44:49;18.00;99.90
13854;DHT22;6997;51.782;8.824;2022-08-19T02:49:41;18.10;99.90
13854;DHT22;6997;51.782;8.824;2022-08-19T02:52:07;18.10;99.90
13854;DHT22;6997;51.782;8.824;2022-08-19T02:54:33;18.00;99.90
13854;DHT22;6997;51.782;8.824;2022-08-19T02:59:30;18.00;99.90
13854;DHT22;6997;51.782;8.824;2022-08-19T03:01:55;17.90;99.90
13854;DHT22;6997;51.782;8.824;2022-08-19T03:09:15;17.80;99.90
13854;DHT22;6997;51.782;8.824;2022-08-19T03:11:41;17.80;99.90
13854;DHT22;6997;51.782;8.824;2022-08-19T03:14:08;17.70;99.90
13854;DHT22;6997;51.782;8.824;2022-08-19T03:16:43;17.80;99.90
13854;DHT22;6997;51.782;8.824;2022-08-19T03:19:09;17.80;99.90
13854;DHT22;6997;51.782;8.824;2022-08-19T03:21:35;17.80;99.90
13854;DHT22;6997;51.782;8.824;2022-08-19T03:28:54;17.80;99.90
13854;DHT22;6997;51.782;8.824;2022-08-19T03:31:21;17.90;99.90
13854;DHT22;6997;51.782;8.824;2022-08-19T03:33:51;17.70;99.90
13854;DHT22;6997;51.782;8.824;2022-08-19T03:36:22;17.70;99.90
13854;DHT22;6997;51.782;8.824;2022-08-19T03:46:17;17.70;99.90
13854;DHT22;6997;51.782;8.824;2022-08-19T03:48:47;17.70;99.90
13854;DHT22;6997;51.782;8.824;2022-08-19T03:51:18;17.60;99.90
13854;DHT22;6997;51.782;8.824;2022-08-19T04:01:14;17.50;99.90
13854;DHT22;6997;51.782;8.824;2022-08-19T04:08:45;17.50;99.90
13854;DHT22;6997;51.782;8.824;2022-08-19T04:13:38;16.90;99.90
13854;DHT22;6997;51.782;8.824;2022-08-19T04:16:05;16.70;99.90
13854;DHT22;6997;51.782;8.824;2022-08-19T04:18:32;16.70;99.90
13854;DHT22;6997;51.782;8.824;2022-08-19T04:20:58;16.70;99.90
13854;DHT22;6997;51.782;8.824;2022-08-19T04:25:53;16.90;99.90
13854;DHT22;6997;51.782;8.824;2022-08-19T04:28:20;16.80;99.90
13854;DHT22;6997;51.782;8.824;2022-08-19T04:30:48;17.00;99.90
13854;DHT22;6997;51.782;8.824;2022-08-19T04:38:10;17.00;99.90
13854;DHT22;6997;51.782;8.824;2022-08-19T04:40:44;17.00;99.90
13854;DHT22;6997;51.782;8.824;2022-08-19T04:43:30;16.90;99.90
13854;DHT22;6997;51.782;8.824;2022-08-19T04:45:57;16.90;99.90
13854;DHT22;6997;51.782;8.824;2022-08-19T04:48:23;17.00;99.90
13854;DHT22;6997;51.782;8.824;2022-08-19T04:50:56;17.10;99.90
13854;DHT22;6997;51.782;8.824;2022-08-19T04:53:27;17.20;99.90
13854;DHT22;6997;51.782;8.824;2022-08-19T04:55:57;17.20;99.90
13854;DHT22;6997;51.782;8.824;2022-08-19T05:00:52;17.00;99.90
13854;DHT22;6997;51.782;8.824;2022-08-19T05:03:18;17.00;99.90
13854;DHT22;6997;51.782;8.824;2022-08-19T05:05:45;17.10;99.90
13854;DHT22;6997;51.782;8.824;2022-08-19T05:10:39;17.20;99.90
13854;DHT22;6997;51.782;8.824;2022-08-19T05:13:05;17.40;99.90
13854;DHT22;6997;51.782;8.824;2022-08-19T05:15:31;17.50;99.90
13854;DHT22;6997;51.782;8.824;2022-08-19T05:17:56;17.60;99.90
13854;DHT22;6997;51.782;8.824;2022-08-19T05:23:25;17.60;99.90
13854;DHT22;6997;51.782;8.824;2022-08-19T05:25:51;17.70;99.90
13854;DHT22;6997;51.782;8.824;2022-08-19T05:28:18;17.70;99.90
13854;DHT22;6997;51.782;8.824;2022-08-19T05:33:10;17.80;99.90
13854;DHT22;6997;51.782;8.824;2022-08-19T05:35:38;17.80;99.90
13854;DHT22;6997;51.782;8.824;2022-08-19T05:38:03;17.90;99.90
13854;DHT22;6997;51.782;8.824;2022-08-19T05:40:29;17.80;99.90
13854;DHT22;6997;51.782;8.824;2022-08-19T05:58:37;17.60;99.90
13854;DHT22;6997;51.782;8.824;2022-08-19T06:01:12;17.60;99.90
13854;DHT22;6997;51.782;8.824;2022-08-19T06:06:09;17.70;99.90
13854;DHT22;6997;51.782;8.824;2022-08-19T06:08:37;17.80;99.90
13854;DHT22;6997;51.782;8.824;2022-08-19T06:13:45;18.10;99.90
13854;DHT22;6997;51.782;8.824;2022-08-19T06:16:17;18.10;99.90
13854;DHT22;6997;51.782;8.824;2022-08-19T06:18:51;18.00;99.90
13854;DHT22;6997;51.782;8.824;2022-08-19T06:23:47;17.90;99.90
13854;DHT22;6997;51.782;8.824;2022-08-19T06:26:15;18.00;99.90
13854;DHT22;6997;51.782;8.824;2022-08-19T06:28:42;17.90;99.90
13854;DHT22;6997;51.782;8.824;2022-08-19T06:31:20;17.80;99.90
13854;DHT22;6997;51.782;8.824;2022-08-19T06:36:28;17.80;99.90
13854;DHT22;6997;51.782;8.824;2022-08-19T06:44:33;17.90;99.90
13854;DHT22;6997;51.782;8.824;2022-08-19T06:47:06;18.00;99.90
13854;DHT22;6997;51.782;8.824;2022-08-19T06:49:33;18.10;99.90
13854;DHT22;6997;51.782;8.824;2022-08-19T06:52:01;18.20;99.90
13854;DHT22;6997;51.782;8.824;2022-08-19T06:59:24;18.20;99.90
13854;DHT22;6997;51.782;8.824;2022-08-19T07:01:56;18.00;99.90
13854;DHT22;6997;51.782;8.824;2022-08-19T07:04:27;18.00;99.90
13854;DHT22;6997;51.782;8.824;2022-08-19T07:07:01;17.90;99.90
13854;DHT22;6997;51.782;8.824;2022-08-19T07:14:26;18.00;99.90
13854;DHT22;6997;51.782;8.824;2022-08-19T07:16:55;18.00;99.90
13854;DHT22;6997;51.782;8.824;2022-08-19T07:21:53;18.10;99.90
13854;DHT22;6997;51.782;8.824;2022-08-19T07:24:22;18.10;99.90
13854;DHT22;6997;51.782;8.824;2022-08-19T07:29:23;18.20;99.90
13854;DHT22;6997;51.782;8.824;2022-08-19T07:39:19;18.20;99.90
13854;DHT22;6997;51.782;8.824;2022-08-19T07:44:14;18.30;99.90
13854;DHT22;6997;51.782;8.824;2022-08-19T07:46:44;18.50;99.90
13854;DHT22;6997;51.782;8.824;2022-08-19T07:49:12;18.60;99.90
13854;DHT22;6997;51.782;8.824;2022-08-19T07:51:47;18.80;99.90
13854;DHT22;6997;51.782;8.824;2022-08-19T07:54:13;18.70;99.90
13854;DHT22;6997;51.782;8.824;2022-08-19T07:59:06;18.90;99.90
13854;DHT22;6997;51.782;8.824;2022-08-19T08:01:33;19.00;99.90
13854;DHT22;6997;51.782;8.824;2022-08-19T08:03:58;19.00;99.90
13854;DHT22;6997;51.782;8.824;2022-08-19T08:14:42;19.20;99.90
13854;DHT22;6997;51.782;8.824;2022-08-19T08:17:10;19.30;99.90
13854;DHT22;6997;51.782;8.824;2022-08-19T08:19:37;19.40;99.90
13854;DHT22;6997;51.782;8.824;2022-08-19T08:22:06;19.70;99.90
13854;DHT22;6997;51.782;8.824;2022-08-19T08:24:32;19.60;99.90
13854;DHT22;6997;51.782;8.824;2022-08-19T08:29:29;19.60;99.90
13854;DHT22;6997;51.782;8.824;2022-08-19T08:31:55;19.70;99.90
13854;DHT22;6997;51.782;8.824;2022-08-19T08:36:47;19.90;99.90
13854;DHT22;6997;51.782;8.824;2022-08-19T08:39:15;20.00;99.90
13854;DHT22;6997;51.782;8.824;2022-08-19T08:44:43;20.50;99.90
13854;DHT22;6997;51.782;8.824;2022-08-19T08:47:17;20.70;99.90
13854;DHT22;6997;51.782;8.824;2022-08-19T08:52:21;21.10;99.90
13854;DHT22;6997;51.782;8.824;2022-08-19T08:54:49;21.20;99.90
13854;DHT22;6997;51.782;8.824;2022-08-19T08:59:48;21.30;99.90
13854;DHT22;6997;51.782;8.824;2022-08-19T09:02:18;21.30;99.90
13854;DHT22;6997;51.782;8.824;2022-08-19T09:04:44;21.50;99.90
13854;DHT22;6997;51.782;8.824;2022-08-19T09:09:57;21.60;99.90
13854;DHT22;6997;51.782;8.824;2022-08-19T09:17:41;21.90;99.90
13854;DHT22;6997;51.782;8.824;2022-08-19T09:22:42;21.80;99.90
13854;DHT22;6997;51.782;8.824;2022-08-19T09:30:06;22.00;99.90
13854;DHT22;6997;51.782;8.824;2022-08-19T09:32:32;22.20;99.90
13854;DHT22;6997;51.782;8.824;2022-08-19T09:34:58;22.40;99.90
13854;DHT22;6997;51.782;8.824;2022-08-19T09:37:26;22.40;99.90
13854;DHT22;6997;51.782;8.824;2022-08-19T09:39:52;22.30;99.90
13854;DHT22;6997;51.782;8.824;2022-08-19T09:44:44;22.00;99.90
13854;DHT22;6997;51.782;8.824;2022-08-19T09:47:11;21.90;99.90
13854;DHT22;6997;51.782;8.824;2022-08-19T09:49:38;22.10;99.90
13854;DHT22;6997;51.782;8.824;2022-08-19T09:52:08;22.40;99.90
13854;DHT22;6997;51.782;8.824;2022-08-19T09:54:34;22.60;99.90
13854;DHT22;6997;51.782;8.824;2022-08-19T09:57:00;22.70;99.90
13854;DHT22;6997;51.782;8.824;2022-08-19T09:59:26;22.60;99.90
13854;DHT22;6997;51.782;8.824;2022-08-19T10:06:47;22.70;99.90
13854;DHT22;6997;51.782;8.824;2022-08-19T10:14:07;22.40;99.90
13854;DHT22;6997;51.782;8.824;2022-08-19T10:16:36;22.50;99.90
13854;DHT22;6997;51.782;8.824;2022-08-19T10:23:59;22.80;99.90
13854;DHT22;6997;51.782;8.824;2022-08-19T10:26:31;23.10;99.90
13854;DHT22;6997;51.782;8.824;2022-08-19T10:28:58;23.40;99.90
13854;DHT22;6997;51.782;8.824;2022-08-19T10:31:28;23.50;99.90
13854;DHT22;6997;51.782;8.824;2022-08-19T10:36:32;23.70;99.90
13854;DHT22;6997;51.782;8.824;2022-08-19T10:41:29;23.60;99.90
13854;DHT22;6997;51.782;8.824;2022-08-19T10:43:57;23.70;99.90
13854;DHT22;6997;51.782;8.824;2022-08-19T10:46:25;23.80;99.90
13854;DHT22;6997;51.782;8.824;2022-08-19T10:48:51;23.70;99.90
13854;DHT22;6997;51.782;8.824;2022-08-19T10:51:18;24.00;99.90
13854;DHT22;6997;51.782;8.824;2022-08-19T10:54:02;24.10;99.90
13854;DHT22;6997;51.782;8.824;2022-08-19T10:56:29;24.10;99.90
13854;DHT22;6997;51.782;8.824;2022-08-19T10:59:14;24.20;99.90
13854;DHT22;6997;51.782;8.824;2022-08-19T11:01:41;24.30;99.90
13854;DHT22;6997;51.782;8.824;2022-08-19T11:04:07;24.40;99.90
13854;DHT22;6997;51.782;8.824;2022-08-19T11:06:37;24.40;99.90
13854;DHT22;6997;51.782;8.824;2022-08-19T11:09:04;24.40;99.90
13854;DHT22;6997;51.782;8.824;2022-08-19T11:11:31;24.40;99.90
13854;DHT22;6997;51.782;8.824;2022-08-19T11:14:07;24.30;99.90
13854;DHT22;6997;51.782;8.824;2022-08-19T11:16:33;24.30;99.90
13854;DHT22;6997;51.782;8.824;2022-08-19T11:18:59;24.40;99.90
13854;DHT22;6997;51.782;8.824;2022-08-19T11:21:37;24.40;99.90
13854;DHT22;6997;51.782;8.824;2022-08-19T11:24:12;24.40;99.90
13854;DHT22;6997;51.782;8.824;2022-08-19T11:26:39;24.50;99.90
13854;DHT22;6997;51.782;8.824;2022-08-19T11:29:07;24.70;99.90
13854;DHT22;6997;51.782;8.824;2022-08-19T11:31:37;24.50;99.90
13854;DHT22;6997;51.782;8.824;2022-08-19T11:34:07;24.40;99.90
13854;DHT22;6997;51.782;8.824;2022-08-19T11:36:33;24.30;99.90
13854;DHT22;6997;51.782;8.824;2022-08-19T11:39:00;24.40;99.90
13854;DHT22;6997;51.782;8.824;2022-08-19T11:41:27;24.40;99.90
13854;DHT22;6997;51.782;8.824;2022-08-19T11:43:54;24.30;99.90
13854;DHT22;6997;51.782;8.824;2022-08-19T11:46:22;24.40;99.90
13854;DHT22;6997;51.782;8.824;2022-08-19T11:48:49;24.30;99.90
13854;DHT22;6997;51.782;8.824;2022-08-19T11:53:44;24.00;99.90
13854;DHT22;6997;51.782;8.824;2022-08-19T11:56:10;23.90;99.90
13854;DHT22;6997;51.782;8.824;2022-08-19T11:58:37;24.20;99.90
13854;DHT22;6997;51.782;8.824;2022-08-19T12:01:08;24.60;99.90
13854;DHT22;6997;51.782;8.824;2022-08-19T12:03:34;24.50;99.90
13854;DHT22;6997;51.782;8.824;2022-08-19T12:06:04;25.00;99.90
13854;DHT22;6997;51.782;8.824;2022-08-19T12:08:30;25.10;99.90
13854;DHT22;6997;51.782;8.824;2022-08-19T12:10:56;25.00;99.90
13854;DHT22;6997;51.782;8.824;2022-08-19T12:15:48;24.90;99.90
13854;DHT22;6997;51.782;8.824;2022-08-19T12:18:13;25.20;99.90
13854;DHT22;6997;51.782;8.824;2022-08-19T12:20:41;25.50;99.90
13854;DHT22;6997;51.782;8.824;2022-08-19T12:23:09;26.00;99.90
13854;DHT22;6997;51.782;8.824;2022-08-19T12:25:36;26.10;99.90
13854;DHT22;6997;51.782;8.824;2022-08-19T12:28:03;25.90;99.90
13854;DHT22;6997;51.782;8.824;2022-08-19T12:30:29;25.60;99.90
13854;DHT22;6997;51.782;8.824;2022-08-19T12:32:54;25.60;99.90
13854;DHT22;6997;51.782;8.824;2022-08-19T12:35:20;25.80;99.90
13854;DHT22;6997;51.782;8.824;2022-08-19T12:37:47;26.30;99.90
13854;DHT22;6997;51.782;8.824;2022-08-19T12:40:15;27.20;99.90
13854;DHT22;6997;51.782;8.824;2022-08-19T12:42:44;26.90;99.90
13854;DHT22;6997;51.782;8.824;2022-08-19T12:47:37;26.30;99.90
13854;DHT22;6997;51.782;8.824;2022-08-19T12:50:04;26.60;99.90
13854;DHT22;6997;51.782;8.824;2022-08-19T12:52:31;26.80;99.90
13854;DHT22;6997;51.782;8.824;2022-08-19T12:57:27;28.40;99.90
13854;DHT22;6997;51.782;8.824;2022-08-19T12:59:53;28.60;99.90
13854;DHT22;6997;51.782;8.824;2022-08-19T13:02:19;28.60;99.90
13854;DHT22;6997;51.782;8.824;2022-08-19T13:04:46;28.50;99.90
13854;DHT22;6997;51.782;8.824;2022-08-19T13:09:38;29.50;99.90
13854;DHT22;6997;51.782;8.824;2022-08-19T13:14:38;29.10;97.90
13854;DHT22;6997;51.782;8.824;2022-08-19T13:19:32;28.10;98.60
13854;DHT22;6997;51.782;8.824;2022-08-19T13:21:57;26.80;99.90
13854;DHT22;6997;51.782;8.824;2022-08-19T13:24:25;27.10;99.90
13854;DHT22;6997;51.782;8.824;2022-08-19T13:26:52;27.30;99.90
13854;DHT22;6997;51.782;8.824;2022-08-19T13:29:19;28.70;98.70
13854;DHT22;6997;51.782;8.824;2022-08-19T13:32:04;28.70;97.60
13854;DHT22;6997;51.782;8.824;2022-08-19T13:34:48;28.10;99.20
13854;DHT22;6997;51.782;8.824;2022-08-19T13:37:14;28.00;99.70
13854;DHT22;6997;51.782;8.824;2022-08-19T13:39:40;27.60;98.60
13854;DHT22;6997;51.782;8.824;2022-08-19T13:42:05;27.80;99.00
13854;DHT22;6997;51.782;8.824;2022-08-19T13:44:32;28.00;99.30
13854;DHT22;6997;51.782;8.824;2022-08-19T13:47:04;27.00;99.50
13854;DHT22;6997;51.782;8.824;2022-08-19T13:49:35;27.10;99.20
13854;DHT22;6997;51.782;8.824;2022-08-19T13:52:03;26.80;99.20
13854;DHT22;6997;51.782;8.824;2022-08-19T13:54:30;26.60;99.20
13854;DHT22;6997;51.782;8.824;2022-08-19T13:56:55;26.90;99.40
13854;DHT22;6997;51.782;8.824;2022-08-19T14:01:47;28.00;98.20
13854;DHT22;6997;51.782;8.824;2022-08-19T14:04:13;29.20;98.00
13854;DHT22;6997;51.782;8.824;2022-08-19T14:06:39;29.90;95.90
13854;DHT22;6997;51.782;8.824;2022-08-19T14:09:04;31.00;95.70
13854;DHT22;6997;51.782;8.824;2022-08-19T14:11:30;30.60;96.00
13854;DHT22;6997;51.782;8.824;2022-08-19T14:13:56;31.30;94.00
13854;DHT22;6997;51.782;8.824;2022-08-19T14:16:22;32.10;94.50
13854;DHT22;6997;51.782;8.824;2022-08-19T14:18:48;32.10;92.60
13854;DHT22;6997;51.782;8.824;2022-08-19T14:21:19;32.50;92.90
13854;DHT22;6997;51.782;8.824;2022-08-19T14:23:46;32.30;92.30
13854;DHT22;6997;51.782;8.824;2022-08-19T14:26:16;32.10;92.00
13854;DHT22;6997;51.782;8.824;2022-08-19T14:28:42;31.60;92.00
13854;DHT22;6997;51.782;8.824;2022-08-19T14:31:09;31.80;91.80
13854;DHT22;6997;51.782;8.824;2022-08-19T14:33:35;31.40;92.10
13854;DHT22;6997;51.782;8.824;2022-08-19T14:36:02;30.80;93.90
13854;DHT22;6997;51.782;8.824;2022-08-19T14:38:27;28.80;94.80
13854;DHT22;6997;51.782;8.824;2022-08-19T14:41:17;28.30;96.20
13854;DHT22;6997;51.782;8.824;2022-08-19T14:43:48;28.00;96.20
13854;DHT22;6997;51.782;8.824;2022-08-19T14:46:17;28.20;96.70
13854;DHT22;6997;51.782;8.824;2022-08-19T14:53:37;26.90;97.90
13854;DHT22;6997;51.782;8.824;2022-08-19T14:56:11;26.90;98.40
13854;DHT22;6997;51.782;8.824;2022-08-19T14:58:38;26.80;99.00
13854;DHT22;6997;51.782;8.824;2022-08-19T15:01:06;26.80;98.90
13854;DHT22;6997;51.782;8.824;2022-08-19T15:03:32;27.10;99.00
13854;DHT22;6997;51.782;8.824;2022-08-19T15:06:00;27.40;98.50
13854;DHT22;6997;51.782;8.824;2022-08-19T15:08:28;28.10;98.10
13854;DHT22;6997;51.782;8.824;2022-08-19T15:10:56;28.50;97.30
13854;DHT22;6997;51.782;8.824;2022-08-19T15:13:24;28.00;96.90
13854;DHT22;6997;51.782;8.824;2022-08-19T15:15:51;27.40;97.50
13854;DHT22;6997;51.782;8.824;2022-08-19T15:18:17;27.00;97.60
13854;DHT22;6997;51.782;8.824;2022-08-19T15:20:46;26.80;98.50
13854;DHT22;6997;51.782;8.824;2022-08-19T15:25:40;26.70;97.90
13854;DHT22;6997;51.782;8.824;2022-08-19T15:28:06;26.80;98.20
13854;DHT22;6997;51.782;8.824;2022-08-19T15:30:32;26.80;99.60
13854;DHT22;6997;51.782;8.824;2022-08-19T15:32:59;26.80;98.50
13854;DHT22;6997;51.782;8.824;2022-08-19T15:35:25;26.80;99.90
13854;DHT22;6997;51.782;8.824;2022-08-19T15:37:54;26.80;98.90
13854;DHT22;6997;51.782;8.824;2022-08-19T15:40:21;27.40;99.00
13854;DHT22;6997;51.782;8.824;2022-08-19T15:42:49;28.30;97.10
13854;DHT22;6997;51.782;8.824;2022-08-19T15:45:17;28.70;98.10
13854;DHT22;6997;51.782;8.824;2022-08-19T15:47:45;29.10;96.70
13854;DHT22;6997;51.782;8.824;2022-08-19T15:50:17;29.30;96.40
13854;DHT22;6997;51.782;8.824;2022-08-19T15:55:15;28.90;96.50
13854;DHT22;6997;51.782;8.824;2022-08-19T15:57:40;28.70;96.20
13854;DHT22;6997;51.782;8.824;2022-08-19T16:00:25;28.30;96.70
13854;DHT22;6997;51.782;8.824;2022-08-19T16:03:12;28.10;97.10
13854;DHT22;6997;51.782;8.824;2022-08-19T16:05:57;28.00;96.50
13854;DHT22;6997;51.782;8.824;2022-08-19T16:11:18;29.00;96.70
13854;DHT22;6997;51.782;8.824;2022-08-19T16:13:46;28.70;97.20
13854;DHT22;6997;51.782;8.824;2022-08-19T16:16:43;28.10;96.70
13854;DHT22;6997;51.782;8.824;2022-08-19T16:19:16;28.00;97.90
13854;DHT22;6997;51.782;8.824;2022-08-19T16:21:49;28.40;98.80
13854;DHT22;6997;51.782;8.824;2022-08-19T16:24:20;28.90;97.00
13854;DHT22;6997;51.782;8.824;2022-08-19T16:26:47;29.50;97.20
13854;DHT22;6997;51.782;8.824;2022-08-19T16:29:15;30.10;95.10
13854;DHT22;6997;51.782;8.824;2022-08-19T17:56:46;26.00;99.20
13854;DHT22;6997;51.782;8.824;2022-08-19T17:59:14;26.00;99.90
13854;DHT22;6997;51.782;8.824;2022-08-19T18:01:44;25.90;99.90
13854;DHT22;6997;51.782;8.824;2022-08-19T18:35:10;24.50;99.90
13854;DHT22;6997;51.782;8.824;2022-08-19T18:37:38;24.40;99.90
13854;DHT22;6997;51.782;8.824;2022-08-19T18:40:06;24.30;99.90
13854;DHT22;6997;51.782;8.824;2022-08-19T18:42:51;24.20;99.90
13854;DHT22;6997;51.782;8.824;2022-08-19T18:45:37;24.20;99.90
13854;DHT22;6997;51.782;8.824;2022-08-19T18:48:23;24.10;99.90
13854;DHT22;6997;51.782;8.824;2022-08-19T18:51:07;24.00;99.90
13854;DHT22;6997;51.782;8.824;2022-08-19T18:53:37;24.00;99.90
13854;DHT22;6997;51.782;8.824;2022-08-19T18:56:06;24.00;99.90
13854;DHT22;6997;51.782;8.824;2022-08-19T18:58:35;24.00;99.90
13854;DHT22;6997;51.782;8.824;2022-08-19T19:01:16;24.00;99.90
13854;DHT22;6997;51.782;8.824;2022-08-19T19:03:45;23.90;99.90
13854;DHT22;6997;51.782;8.824;2022-08-19T19:06:17;23.90;99.90
13854;DHT22;6997;51.782;8.824;2022-08-19T19:08:47;23.90;99.90
13854;DHT22;6997;51.782;8.824;2022-08-19T19:11:23;23.80;99.90
13854;DHT22;6997;51.782;8.824;2022-08-19T19:13:51;23.80;99.90
13854;DHT22;6997;51.782;8.824;2022-08-19T19:16:18;23.60;99.90
13854;DHT22;6997;51.782;8.824;2022-08-19T19:18:44;23.60;99.90
13854;DHT22;6997;51.782;8.824;2022-08-19T19:21:11;23.60;99.90
13854;DHT22;6997;51.782;8.824;2022-08-19T19:23:38;23.50;99.90
13854;DHT22;6997;51.782;8.824;2022-08-19T19:26:08;23.50;99.90
13854;DHT22;6997;51.782;8.824;2022-08-19T19:28:37;23.50;99.90
13854;DHT22;6997;51.782;8.824;2022-08-19T19:31:12;23.50;99.90
13854;DHT22;6997;51.782;8.824;2022-08-19T19:33:40;23.40;99.90
13854;DHT22;6997;51.782;8.824;2022-08-19T19:38:34;23.40;99.90
13854;DHT22;6997;51.782;8.824;2022-08-19T19:41:00;23.40;99.90
13854;DHT22;6997;51.782;8.824;2022-08-19T19:43:26;23.40;99.90
13854;DHT22;6997;51.782;8.824;2022-08-19T19:48:22;23.30;99.90
13854;DHT22;6997;51.782;8.824;2022-08-19T19:50:49;23.30;99.90
13854;DHT22;6997;51.782;8.824;2022-08-19T19:53:15;23.30;99.90
13854;DHT22;6997;51.782;8.824;2022-08-19T19:55:42;23.40;99.90
13854;DHT22;6997;51.782;8.824;2022-08-19T19:58:08;23.40;99.90
13854;DHT22;6997;51.782;8.824;2022-08-19T20:00:36;23.30;99.90
13854;DHT22;6997;51.782;8.824;2022-08-19T20:03:02;23.30;99.90
13854;DHT22;6997;51.782;8.824;2022-08-19T20:05:29;23.20;99.90
13854;DHT22;6997;51.782;8.824;2022-08-19T20:10:42;23.20;99.90
13854;DHT22;6997;51.782;8.824;2022-08-19T20:13:10;23.20;99.90
13854;DHT22;6997;51.782;8.824;2022-08-19T20:15:39;23.10;99.90
13854;DHT22;6997;51.782;8.824;2022-08-19T20:18:09;23.00;99.90
13854;DHT22;6997;51.782;8.824;2022-08-19T20:25:30;23.00;99.90
13854;DHT22;6997;51.782;8.824;2022-08-19T20:35:22;22.60;99.90
13854;DHT22;6997;51.782;8.824;2022-08-19T20:37:48;22.70;99.90
13854;DHT22;6997;51.782;8.824;2022-08-19T20:42:43;22.70;99.90
13854;DHT22;6997;51.782;8.824;2022-08-19T20:45:12;22.70;99.90
13854;DHT22;6997;51.782;8.824;2022-08-19T20:50:06;22.70;99.90
13854;DHT22;6997;51.782;8.824;2022-08-19T20:52:33;22.80;99.90
13854;DHT22;6997;51.782;8.824;2022-08-19T20:55:01;22.80;99.90
13854;DHT22;6997;51.782;8.824;2022-08-19T20:57:28;22.80;99.90
13854;DHT22;6997;51.782;8.824;2022-08-19T21:02:21;22.70;99.90
13854;DHT22;6997;51.782;8.824;2022-08-19T21:04:49;22.70;99.90
13854;DHT22;6997;51.782;8.824;2022-08-19T21:07:15;22.70;99.90
13854;DHT22;6997;51.782;8.824;2022-08-19T21:09:40;22.60;99.90
13854;DHT22;6997;51.782;8.824;2022-08-19T21:12:08;22.50;99.90
13854;DHT22;6997;51.782;8.824;2022-08-19T21:14:43;22.50;99.90
13854;DHT22;6997;51.782;8.824;2022-08-19T21:17:10;22.40;99.90
13854;DHT22;6997;51.782;8.824;2022-08-19T21:19:36;22.50;99.90
13854;DHT22;6997;51.782;8.824;2022-08-19T21:22:03;22.50;99.90
13854;DHT22;6997;51.782;8.824;2022-08-19T21:24:30;22.50;99.90
13854;DHT22;6997;51.782;8.824;2022-08-19T21:26:55;22.50;99.90
13854;DHT22;6997;51.782;8.824;2022-08-19T21:29:21;22.40;99.90
13854;DHT22;6997;51.782;8.824;2022-08-19T21:31:46;22.40;99.90
13854;DHT22;6997;51.782;8.824;2022-08-19T21:34:13;22.20;99.90
13854;DHT22;6997;51.782;8.824;2022-08-19T21:36:39;22.20;99.90
13854;DHT22;6997;51.782;8.824;2022-08-19T21:39:04;22.30;99.90
13854;DHT22;6997;51.782;8.824;2022-08-19T21:41:30;22.20;99.90
13854;DHT22;6997;51.782;8.824;2022-08-19T21:46:22;22.00;99.90
13854;DHT22;6997;51.782;8.824;2022-08-19T21:48:47;22.00;99.90
13854;DHT22;6997;51.782;8.824;2022-08-19T21:51:13;22.00;99.90
13854;DHT22;6997;51.782;8.824;2022-08-19T21:53:39;22.00;99.90
13854;DHT22;6997;51.782;8.824;2022-08-19T21:56:04;22.00;99.90
13854;DHT22;6997;51.782;8.824;2022-08-19T21:58:33;22.00;99.90
13854;DHT22;6997;51.782;8.824;2022-08-19T22:01:01;21.90;99.90
13854;DHT22;6997;51.782;8.824;2022-08-19T22:05:58;21.90;99.90
13854;DHT22;6997;51.782;8.824;2022-08-19T22:08:24;21.80;99.90
13854;DHT22;6997;51.782;8.824;2022-08-19T22:10:50;21.80;99.90
13854;DHT22;6997;51.782;8.824;2022-08-19T22:13:16;21.80;99.90
13854;DHT22;6997;51.782;8.824;2022-08-19T22:15:43;21.80;99.90
13854;DHT22;6997;51.782;8.824;2022-08-19T22:18:09;21.70;99.90